Time;durP1;ratioP1;P1;durP2;ratioP2;P2;SDS_P1;SDS_P2;PMS_P1;PMS_P2;Temp;Humidity;BMP_temperature;BMP_pressure;BME280_temperature;BME280_humidity;BME280_pressure;Samples;Min_cycle;Max_cycle;Signal;HPM_P1;HPM_P2
2024/01/20 00:01:20;;;;;;;19.23;5.95;;;;;;;-144.74;100.00;63161.41;4953837;28;20038;-74
2024/01/20 00:04:05;;;;;;;24.38;5.53;;;;;;;-144.74;100.00;63161.41;4961367;28;20041;-74
2024/01/20 00:06:34;;;;;;;20.33;6.43;;;;;;;-144.74;100.00;63161.41;4968598;28;20057;-74
2024/01/20 00:08:59;;;;;;;17.23;5.50;;;;;;;-144.74;100.00;63161.41;4955380;28;20063;-74
2024/01/20 00:11:24;;;;;;;23.63;5.18;;;;;;;-144.74;100.00;63161.41;4963905;28;20019;-75
2024/01/20 00:13:53;;;;;;;15.05;5.22;;;;;;;-144.74;100.00;63161.41;4963174;28;20043;-75
2024/01/20 00:16:18;;;;;;;14.32;5.15;;;;;;;-144.74;100.00;63161.41;4953611;28;20030;-75
2024/01/20 00:18:43;;;;;;;24.60;5.13;;;;;;;-144.74;100.00;63161.41;4955597;28;20034;-75
2024/01/20 00:21:09;;;;;;;20.30;5.00;;;;;;;-144.74;100.00;63161.41;4956862;28;20551;-75
2024/01/20 00:23:37;;;;;;;26.40;5.70;;;;;;;-144.74;100.00;63161.41;4954803;28;20018;-74
2024/01/20 00:26:02;;;;;;;19.95;6.22;;;;;;;-144.74;100.00;63161.41;4956409;28;20110;-74
2024/01/20 00:28:28;;;;;;;24.08;6.47;;;;;;;-144.74;100.00;63161.41;4955263;28;20098;-75
2024/01/20 00:30:53;;;;;;;22.85;5.30;;;;;;;-144.74;100.00;63161.41;4949821;28;20589;-74
2024/01/20 00:33:21;;;;;;;22.83;5.30;;;;;;;-144.74;100.00;63161.41;4952329;28;20026;-75
2024/01/20 00:35:56;;;;;;;16.67;5.55;;;;;;;-144.74;100.00;63161.41;4955238;28;20506;-75
2024/01/20 00:38:26;;;;;;;23.80;6.00;;;;;;;-144.74;100.00;63161.41;4958289;28;20018;-75
2024/01/20 00:40:52;;;;;;;28.92;5.82;;;;;;;-144.74;100.00;63161.41;4958582;28;20026;-75
2024/01/20 00:43:17;;;;;;;28.42;6.60;;;;;;;-144.74;100.00;63161.41;4956933;28;20231;-75
2024/01/20 00:45:45;;;;;;;31.90;6.43;;;;;;;-144.74;100.00;63161.41;4947186;28;20031;-75
2024/01/20 00:48:11;;;;;;;22.60;6.25;;;;;;;-144.74;100.00;63161.41;4991275;28;20019;-75
2024/01/20 00:50:37;;;;;;;16.85;6.30;;;;;;;-144.74;100.00;63161.41;4957021;28;20042;-75
2024/01/20 00:53:02;;;;;;;14.73;5.30;;;;;;;-144.74;100.00;63161.41;4957439;28;20037;-75
2024/01/20 00:55:28;;;;;;;20.88;6.00;;;;;;;-144.74;100.00;63161.41;4960068;28;20053;-75
2024/01/20 00:57:53;;;;;;;29.23;6.45;;;;;;;-144.74;100.00;63161.41;4957493;28;20017;-75
2024/01/20 01:00:19;;;;;;;23.15;5.57;;;;;;;-144.74;100.00;63161.41;4958704;28;20093;-75
2024/01/20 01:02:47;;;;;;;26.85;6.47;;;;;;;-144.74;100.00;63161.41;4958792;28;20023;-74
2024/01/20 01:05:12;;;;;;;25.83;7.55;;;;;;;-144.74;100.00;63161.41;4975617;28;20030;-76
2024/01/20 01:07:38;;;;;;;24.88;5.75;;;;;;;-144.74;100.00;63161.41;4958890;28;20077;-75
2024/01/20 01:10:05;;;;;;;27.77;6.75;;;;;;;-144.74;100.00;63161.41;4964841;28;20131;-74
2024/01/20 01:12:30;;;;;;;23.52;6.72;;;;;;;-144.74;100.00;63161.41;4958522;28;20027;-74
2024/01/20 01:14:56;;;;;;;16.80;6.57;;;;;;;-144.74;100.00;63161.41;4973916;28;20027;-74
2024/01/20 01:17:22;;;;;;;13.63;5.88;;;;;;;-144.74;100.00;63161.41;4958601;28;20106;-75
2024/01/20 01:19:49;;;;;;;26.60;6.13;;;;;;;-144.74;100.00;63161.41;4956677;28;20031;-74
2024/01/20 01:22:14;;;;;;;20.98;6.20;;;;;;;-144.74;100.00;63161.41;4975114;28;20018;-75
2024/01/20 01:24:42;;;;;;;22.92;7.68;;;;;;;-144.74;100.00;63161.41;4957870;28;20035;-76
2024/01/20 01:27:07;;;;;;;25.83;7.78;;;;;;;-144.74;100.00;63161.41;4973502;28;20027;-75
2024/01/20 01:29:33;;;;;;;23.95;7.25;;;;;;;-144.74;100.00;63161.41;4959888;28;20085;-75
2024/01/20 01:31:58;;;;;;;35.42;9.38;;;;;;;-144.74;100.00;63161.41;4957926;28;20041;-75
2024/01/20 01:34:24;;;;;;;17.27;7.03;;;;;;;-144.74;100.00;63161.41;4960188;28;20414;-74
2024/01/20 01:36:57;;;;;;;20.88;7.63;;;;;;;-144.74;100.00;63161.41;4977331;28;20038;-74
2024/01/20 01:39:22;;;;;;;29.33;7.95;;;;;;;-144.74;100.00;63161.41;4970336;28;20050;-74
2024/01/20 01:41:47;;;;;;;28.40;7.88;;;;;;;-144.74;100.00;63161.41;4952997;28;20019;-74
2024/01/20 01:44:15;;;;;;;15.38;6.72;;;;;;;-144.74;100.00;63161.41;4958767;28;20046;-74
2024/01/20 01:46:41;;;;;;;19.17;8.18;;;;;;;-144.74;100.00;63161.41;4958717;28;20030;-75
2024/01/20 01:49:07;;;;;;;23.48;8.30;;;;;;;-144.74;100.00;63161.41;4975653;28;20035;-75
2024/01/20 01:51:32;;;;;;;33.42;10.05;;;;;;;-144.74;100.00;63161.41;4957939;28;20022;-75
2024/01/20 01:54:02;;;;;;;24.88;8.40;;;;;;;-144.74;100.00;63161.41;4957037;28;20038;-74
2024/01/20 01:56:33;;;;;;;30.55;9.05;;;;;;;-144.74;100.00;63161.41;4957289;28;20101;-75
2024/01/20 01:58:58;;;;;;;22.52;8.93;;;;;;;-144.74;100.00;63161.41;4952226;28;20031;-74
2024/01/20 02:01:24;;;;;;;28.08;9.32;;;;;;;-144.74;100.00;63161.41;4954323;28;20397;-75
2024/01/20 02:03:50;;;;;;;21.05;8.65;;;;;;;-144.74;100.00;63161.41;4957258;28;20118;-74
2024/01/20 02:06:22;;;;;;;18.75;8.90;;;;;;;-144.74;100.00;63161.41;4957409;28;20018;-74
2024/01/20 02:08:47;;;;;;;21.67;10.30;;;;;;;-144.74;100.00;63161.41;4956871;28;20019;-75
2024/01/20 02:11:13;;;;;;;39.25;10.73;;;;;;;-144.74;100.00;63161.41;4957225;28;20119;-74
2024/01/20 02:13:39;;;;;;;20.55;9.50;;;;;;;-144.74;100.00;63161.41;4958717;28;20031;-73
2024/01/20 02:16:04;;;;;;;30.17;10.57;;;;;;;-144.74;100.00;63161.41;4957149;28;20019;-75
2024/01/20 02:18:33;;;;;;;31.58;12.13;;;;;;;-144.74;100.00;63161.41;4959650;28;20026;-74
2024/01/20 02:20:58;;;;;;;29.35;11.95;;;;;;;-144.74;100.00;63161.41;4984489;28;20026;-74
2024/01/20 02:23:23;;;;;;;29.95;11.35;;;;;;;-144.74;100.00;63161.41;4965459;28;20113;-74
2024/01/20 02:25:49;;;;;;;27.95;12.32;;;;;;;-144.74;100.00;63161.41;4956217;28;20038;-74
2024/01/20 02:28:14;;;;;;;34.57;12.03;;;;;;;-144.74;100.00;63161.41;4954564;28;20474;-74
2024/01/20 02:30:43;;;;;;;34.57;12.57;;;;;;;-144.74;100.00;63161.41;4956654;28;20042;-74
2024/01/20 02:33:09;;;;;;;34.33;13.48;;;;;;;-144.74;100.00;63161.41;4955416;28;20020;-74
2024/01/20 02:35:34;;;;;;;31.75;12.65;;;;;;;-144.74;100.00;63161.41;4956260;28;20041;-74
2024/01/20 02:38:09;;;;;;;33.85;13.00;;;;;;;-144.74;100.00;63161.41;4956649;28;20011;-75
2024/01/20 02:40:38;;;;;;;32.97;14.67;;;;;;;-144.74;100.00;63161.41;4958129;28;20030;-74
2024/01/20 02:43:03;;;;;;;31.63;14.10;;;;;;;-144.74;100.00;63161.41;4956878;28;20014;-74
2024/01/20 02:45:28;;;;;;;28.23;12.80;;;;;;;-144.74;100.00;63161.41;4955925;28;20126;-74
2024/01/20 02:47:54;;;;;;;42.93;14.23;;;;;;;-144.74;100.00;63161.41;4953495;28;20049;-74
2024/01/20 02:50:20;;;;;;;32.00;13.43;;;;;;;-144.74;100.00;63161.41;4952961;28;20077;-74
2024/01/20 02:52:48;;;;;;;31.63;14.18;;;;;;;-144.74;100.00;63161.41;4970716;28;20014;-74
2024/01/20 02:55:14;;;;;;;29.37;14.53;;;;;;;-144.74;100.00;63161.41;4946521;28;20089;-74
2024/01/20 02:57:42;;;;;;;32.45;13.43;;;;;;;-144.74;100.00;63161.41;4956719;28;20015;-74
2024/01/20 03:00:08;;;;;;;34.95;13.50;;;;;;;-144.74;100.00;63161.41;4953170;28;20035;-75
2024/01/20 03:02:33;;;;;;;43.53;14.98;;;;;;;-144.74;100.00;63161.41;4954873;28;20482;-74
2024/01/20 03:05:00;;;;;;;26.08;13.25;;;;;;;-144.74;100.00;63161.41;4958217;28;20034;-74
2024/01/20 03:07:27;;;;;;;40.63;15.52;;;;;;;-144.74;100.00;63161.41;4961953;28;20030;-75
2024/01/20 03:09:53;;;;;;;37.80;13.25;;;;;;;-144.74;100.00;63161.41;4962825;28;20039;-75
2024/01/20 03:12:18;;;;;;;68.73;16.43;;;;;;;-144.74;100.00;63161.41;4967302;28;20026;-75
2024/01/20 03:14:44;;;;;;;35.80;15.63;;;;;;;-144.74;100.00;63161.41;4961025;28;20027;-76
2024/01/20 03:17:09;;;;;;;38.60;14.60;;;;;;;-144.74;100.00;63161.41;4954218;28;20031;-74
2024/01/20 03:19:34;;;;;;;34.03;13.80;;;;;;;-144.74;100.00;63161.41;4954183;28;20047;-74
2024/01/20 03:21:59;;;;;;;29.10;14.40;;;;;;;-144.74;100.00;63161.41;4954584;28;20041;-74
2024/01/20 03:24:25;;;;;;;32.25;13.70;;;;;;;-144.74;100.00;63161.41;4954315;28;20035;-74
2024/01/20 03:26:50;;;;;;;35.85;14.02;;;;;;;-144.74;100.00;63161.41;4955595;28;20027;-74
2024/01/20 03:29:18;;;;;;;28.37;13.40;;;;;;;-144.74;100.00;63161.41;4954546;28;20066;-75
2024/01/20 03:31:44;;;;;;;34.17;15.48;;;;;;;-144.74;100.00;63161.41;4953584;28;20033;-75
2024/01/20 03:34:09;;;;;;;41.97;16.23;;;;;;;-144.74;100.00;63161.41;4953514;28;20121;-74
2024/01/20 03:36:35;;;;;;;36.17;15.05;;;;;;;-144.74;100.00;63161.41;4954293;28;20037;-74
2024/01/20 03:39:04;;;;;;;29.95;15.07;;;;;;;-144.74;100.00;63161.41;4955214;28;20062;-73
2024/01/20 03:41:34;;;;;;;30.85;14.13;;;;;;;-144.74;100.00;63161.41;4955384;28;20033;-74
2024/01/20 03:44:03;;;;;;;42.72;14.57;;;;;;;-144.74;100.00;63161.41;4957547;28;20085;-74
2024/01/20 03:46:28;;;;;;;38.33;16.30;;;;;;;-144.74;100.00;63161.41;4959872;28;20030;-73
2024/01/20 03:48:57;;;;;;;32.70;14.30;;;;;;;-144.74;100.00;63161.41;4960580;28;20406;-74
2024/01/20 03:51:26;;;;;;;37.00;16.50;;;;;;;-144.74;100.00;63161.41;4981905;28;20022;-73
2024/01/20 03:53:52;;;;;;;35.97;15.93;;;;;;;-144.74;100.00;63161.41;4961355;28;20027;-73
2024/01/20 03:56:20;;;;;;;46.90;16.27;;;;;;;-144.74;100.00;63161.41;4972732;28;20114;-74
2024/01/20 03:58:45;;;;;;;36.60;14.88;;;;;;;-144.74;100.00;63161.41;4952013;28;20022;-74
2024/01/20 04:01:10;;;;;;;36.85;17.10;;;;;;;-144.74;100.00;63161.41;4953580;28;20505;-74
2024/01/20 04:03:36;;;;;;;42.80;16.85;;;;;;;-144.74;100.00;63161.41;4953842;28;20105;-73
2024/01/20 04:06:03;;;;;;;34.03;16.42;;;;;;;-144.74;100.00;63161.41;4952021;28;20078;-73
2024/01/20 04:08:28;;;;;;;37.10;18.70;;;;;;;-144.74;100.00;63161.41;4970944;28;20027;-73
2024/01/20 04:10:56;;;;;;;47.80;16.63;;;;;;;-144.74;100.00;63161.41;4943844;28;20046;-74
2024/01/20 04:13:22;;;;;;;33.13;16.73;;;;;;;-144.74;100.00;63161.41;4955209;28;20030;-74
2024/01/20 04:15:47;;;;;;;35.53;18.10;;;;;;;-144.74;100.00;63161.41;4956660;28;20038;-74
2024/01/20 04:18:13;;;;;;;35.08;18.13;;;;;;;-144.74;100.00;63161.41;4954142;28;20097;-73
2024/01/20 04:20:42;;;;;;;36.85;17.35;;;;;;;-144.74;100.00;63161.41;4954686;28;20410;-74
2024/01/20 04:23:08;;;;;;;43.95;19.25;;;;;;;-144.74;100.00;63161.41;4955233;28;20079;-75
2024/01/20 04:25:33;;;;;;;41.60;21.42;;;;;;;-144.74;100.00;63161.41;4954267;28;20038;-73
2024/01/20 04:27:58;;;;;;;35.15;18.45;;;;;;;-144.74;100.00;63161.41;4955403;28;20011;-74
2024/01/20 04:30:24;;;;;;;50.05;21.13;;;;;;;-144.74;100.00;63161.41;4970665;28;20613;-74
2024/01/20 04:32:49;;;;;;;41.65;20.02;;;;;;;-144.74;100.00;63161.41;4953041;28;20027;-73
2024/01/20 04:35:15;;;;;;;43.88;21.33;;;;;;;-144.74;100.00;63161.41;4953420;28;20398;-74
2024/01/20 04:37:40;;;;;;;37.85;20.23;;;;;;;-144.74;100.00;63161.41;4955356;28;20019;-74
2024/01/20 04:40:06;;;;;;;57.72;22.92;;;;;;;-144.74;100.00;63161.41;4954802;28;20027;-74
2024/01/20 04:42:31;;;;;;;47.50;21.45;;;;;;;-144.74;100.00;63161.41;4955272;28;20022;-74
2024/01/20 04:44:57;;;;;;;41.65;22.80;;;;;;;-144.74;100.00;63161.41;4952664;28;20445;-74
2024/01/20 04:47:26;;;;;;;46.53;22.98;;;;;;;-144.74;100.00;63161.41;4951863;28;20019;-73
2024/01/20 04:49:53;;;;;;;48.97;21.65;;;;;;;-144.74;100.00;63161.41;4967793;28;20568;-74
2024/01/20 04:52:20;;;;;;;59.05;25.20;;;;;;;-144.74;100.00;63161.41;4955036;28;20054;-73
2024/01/20 04:54:45;;;;;;;47.45;23.70;;;;;;;-144.74;100.00;63161.41;4954608;28;20097;-74
2024/01/20 04:57:10;;;;;;;48.38;21.83;;;;;;;-144.74;100.00;63161.41;4969024;28;20050;-75
2024/01/20 04:59:36;;;;;;;54.67;23.70;;;;;;;-144.74;100.00;63161.41;4954716;28;20052;-74
2024/01/20 05:02:01;;;;;;;48.05;23.05;;;;;;;-144.74;100.00;63161.41;4951579;28;20101;-74
2024/01/20 05:04:26;;;;;;;44.45;24.38;;;;;;;-144.74;100.00;63161.41;4954652;28;20106;-74
2024/01/20 05:06:52;;;;;;;52.03;23.30;;;;;;;-144.74;100.00;63161.41;4955071;28;20023;-74
2024/01/20 05:09:17;;;;;;;51.92;24.52;;;;;;;-144.74;100.00;63161.41;4952751;28;20031;-74
2024/01/20 05:11:42;;;;;;;48.78;23.95;;;;;;;-144.74;100.00;63161.41;4958155;28;20417;-74
2024/01/20 05:14:08;;;;;;;51.78;26.00;;;;;;;-144.74;100.00;63161.41;4952072;28;20082;-74
2024/01/20 05:16:34;;;;;;;43.33;23.10;;;;;;;-144.74;100.00;63161.41;4959327;28;20077;-75
2024/01/20 05:18:59;;;;;;;51.47;23.97;;;;;;;-144.74;100.00;63161.41;4963224;28;20042;-73
2024/01/20 05:21:25;;;;;;;51.45;25.25;;;;;;;-144.74;100.00;63161.41;4953736;28;20039;-74
2024/01/20 05:23:50;;;;;;;62.55;23.52;;;;;;;-144.74;100.00;63161.41;4956474;28;20122;-74
2024/01/20 05:26:19;;;;;;;51.65;24.75;;;;;;;-144.74;100.00;63161.41;4957457;28;20033;-74
2024/01/20 05:28:47;;;;;;;48.10;23.98;;;;;;;-144.74;100.00;63161.41;4957151;28;20026;-74
2024/01/20 05:31:15;;;;;;;44.58;23.42;;;;;;;-144.74;100.00;63161.41;4957655;28;20122;-73
2024/01/20 05:33:40;;;;;;;45.88;24.70;;;;;;;-144.74;100.00;63161.41;4957933;28;20070;-74
2024/01/20 05:36:06;;;;;;;48.53;23.57;;;;;;;-144.74;100.00;63161.41;4974821;28;20058;-74
2024/01/20 05:38:31;;;;;;;48.25;23.63;;;;;;;-144.74;100.00;63161.41;4957474;28;20035;-74
2024/01/20 05:40:59;;;;;;;52.22;24.27;;;;;;;-144.74;100.00;63161.41;4974823;28;20462;-74
2024/01/20 05:43:24;;;;;;;58.83;24.58;;;;;;;-144.74;100.00;63161.41;4957369;28;20038;-74
2024/01/20 05:45:49;;;;;;;52.03;25.13;;;;;;;-144.74;100.00;63161.41;4949029;28;20034;-73
2024/01/20 05:48:15;;;;;;;48.27;24.67;;;;;;;-144.74;100.00;63161.41;4957708;28;20030;-73
2024/01/20 05:50:40;;;;;;;51.67;26.33;;;;;;;-144.74;100.00;63161.41;4956833;28;20453;-74
2024/01/20 05:53:05;;;;;;;55.55;25.90;;;;;;;-144.74;100.00;63161.41;4956303;28;20474;-73
2024/01/20 05:55:31;;;;;;;54.72;24.92;;;;;;;-144.74;100.00;63161.41;4956633;28;20554;-74
2024/01/20 05:57:56;;;;;;;48.30;22.95;;;;;;;-144.74;100.00;63161.41;4957122;28;20160;-73
2024/01/20 06:00:24;;;;;;;58.28;23.80;;;;;;;-144.74;100.00;63161.41;4956738;28;20157;-73
2024/01/20 06:02:49;;;;;;;59.10;25.53;;;;;;;-144.74;100.00;63161.41;4956807;28;20026;-73
2024/01/20 06:05:15;;;;;;;48.50;24.58;;;;;;;-144.74;100.00;63161.41;4973518;28;20042;-74
2024/01/20 06:07:40;;;;;;;45.22;24.15;;;;;;;-144.74;100.00;63161.41;4956042;28;20042;-73
2024/01/20 06:10:06;;;;;;;49.90;25.13;;;;;;;-144.74;100.00;63161.41;4956136;28;20062;-74
2024/01/20 06:12:33;;;;;;;46.88;22.98;;;;;;;-144.74;100.00;63161.41;4954845;28;20042;-73
2024/01/20 06:14:59;;;;;;;51.53;24.77;;;;;;;-144.74;100.00;63161.41;4955453;28;20046;-73
2024/01/20 06:17:29;;;;;;;48.97;23.30;;;;;;;-144.74;100.00;63161.41;4959139;28;20478;-74
2024/01/20 06:19:55;;;;;;;44.92;23.95;;;;;;;-144.74;100.00;63161.41;4960719;28;20031;-73
2024/01/20 06:22:20;;;;;;;45.10;25.08;;;;;;;-144.74;100.00;63161.41;4958863;28;20470;-74
2024/01/20 06:24:45;;;;;;;58.87;25.17;;;;;;;-144.74;100.00;63161.41;4956538;28;20035;-73
2024/01/20 06:27:14;;;;;;;49.08;24.23;;;;;;;-144.74;100.00;63161.41;4956997;28;20026;-74
2024/01/20 06:29:41;;;;;;;51.60;22.27;;;;;;;-144.74;100.00;63161.41;4957234;28;20138;-73
2024/01/20 06:32:06;;;;;;;51.27;24.13;;;;;;;-144.74;100.00;63161.41;4955429;28;20049;-74
2024/01/20 06:34:34;;;;;;;45.53;23.60;;;;;;;-144.74;100.00;63161.41;4953348;28;20129;-73
2024/01/20 06:37:03;;;;;;;52.85;24.42;;;;;;;-144.74;100.00;63161.41;4956967;28;20031;-74
2024/01/20 06:39:32;;;;;;;58.10;25.50;;;;;;;-144.74;100.00;63161.41;4956733;28;20035;-73
2024/01/20 06:41:57;;;;;;;50.55;25.95;;;;;;;-144.74;100.00;63161.41;4954899;28;20545;-73
2024/01/20 06:44:22;;;;;;;47.57;24.90;;;;;;;-144.74;100.00;63161.41;4953818;28;20161;-74
2024/01/20 06:46:48;;;;;;;50.10;24.80;;;;;;;-144.74;100.00;63161.41;4972849;28;20485;-73
2024/01/20 06:49:16;;;;;;;48.67;26.63;;;;;;;-144.74;100.00;63161.41;4971270;28;20038;-74
2024/01/20 06:51:44;;;;;;;54.33;25.33;;;;;;;-144.74;100.00;63161.41;4969431;28;20034;-72
2024/01/20 06:54:10;;;;;;;51.30;25.93;;;;;;;-144.74;100.00;63161.41;4962634;28;20034;-73
2024/01/20 06:56:38;;;;;;;50.07;24.47;;;;;;;-144.74;100.00;63161.41;4955265;28;20113;-73
2024/01/20 06:59:04;;;;;;;59.53;25.93;;;;;;;-144.74;100.00;63161.41;4947311;28;20038;-73
2024/01/20 07:01:31;;;;;;;45.75;25.20;;;;;;;-144.74;100.00;63161.41;4955565;28;20045;-74
2024/01/20 07:03:57;;;;;;;50.00;25.55;;;;;;;-144.74;100.00;63161.41;4952642;28;20038;-74
2024/01/20 07:06:25;;;;;;;59.40;26.02;;;;;;;-144.74;100.00;63161.41;4957007;28;20042;-73
2024/01/20 07:08:51;;;;;;;51.10;26.17;;;;;;;-144.74;100.00;63161.41;4955795;28;20093;-73
2024/01/20 07:11:16;;;;;;;47.30;27.23;;;;;;;-144.74;100.00;63161.41;4954854;28;20037;-74
2024/01/20 07:13:42;;;;;;;57.37;27.53;;;;;;;-144.74;100.00;63161.41;4955799;28;20118;-74
2024/01/20 07:16:11;;;;;;;56.43;25.33;;;;;;;-144.74;100.00;63161.41;4956059;28;20015;-73
2024/01/20 07:18:37;;;;;;;62.97;25.53;;;;;;;-144.74;100.00;63161.41;4956129;28;20034;-74
2024/01/20 07:21:03;;;;;;;54.37;26.93;;;;;;;-144.74;100.00;63161.41;4956362;28;20026;-73
2024/01/20 07:23:29;;;;;;;52.40;27.20;;;;;;;-144.74;100.00;63161.41;4954533;28;20022;-73
2024/01/20 07:25:55;;;;;;;52.20;24.77;;;;;;;-144.74;100.00;63161.41;4955154;28;20105;-74
2024/01/20 07:28:20;;;;;;;67.18;26.80;;;;;;;-144.74;100.00;63161.41;4956097;28;20018;-73
2024/01/20 07:30:55;;;;;;;48.58;26.45;;;;;;;-144.74;100.00;63161.41;4955591;28;20030;-73
2024/01/20 07:33:20;;;;;;;64.80;27.33;;;;;;;-144.74;100.00;63161.41;4954816;28;20118;-73
2024/01/20 07:35:48;;;;;;;51.17;27.15;;;;;;;-144.74;100.00;63161.41;4959699;28;20094;-73
2024/01/20 07:38:14;;;;;;;52.20;27.23;;;;;;;-144.74;100.00;63161.41;4964839;28;20019;-73
2024/01/20 07:40:39;;;;;;;59.80;25.27;;;;;;;-144.74;100.00;63161.41;4985937;28;20047;-73
2024/01/20 07:43:05;;;;;;;54.10;25.13;;;;;;;-144.74;100.00;63161.41;4952839;28;20073;-74
2024/01/20 07:45:33;;;;;;;58.20;26.07;;;;;;;-144.74;100.00;63161.41;4955451;28;20039;-73
2024/01/20 07:47:59;;;;;;;56.60;29.00;;;;;;;-144.74;100.00;63161.41;4954032;28;20066;-73
2024/01/20 07:50:25;;;;;;;61.17;27.87;;;;;;;-144.74;100.00;63161.41;4955347;28;20042;-73
2024/01/20 07:52:50;;;;;;;59.10;28.13;;;;;;;-144.74;100.00;63161.41;4954418;28;20114;-74
2024/01/20 07:55:18;;;;;;;60.90;26.47;;;;;;;-144.74;100.00;63161.41;4945824;28;20031;-73
2024/01/20 07:57:44;;;;;;;63.97;27.30;;;;;;;-144.74;100.00;63161.41;4954582;28;20043;-73
2024/01/20 08:00:13;;;;;;;57.93;25.57;;;;;;;-144.74;100.00;63161.41;4953579;28;20559;-73
2024/01/20 08:02:39;;;;;;;56.40;26.43;;;;;;;-144.74;100.00;63161.41;4955504;28;20030;-73
2024/01/20 08:05:05;;;;;;;57.80;29.63;;;;;;;-144.74;100.00;63161.41;4954619;28;20027;-73
2024/01/20 08:07:31;;;;;;;65.75;27.38;;;;;;;-144.74;100.00;63161.41;4954150;28;20034;-73
2024/01/20 08:09:59;;;;;;;53.27;27.10;;;;;;;-144.74;100.00;63161.41;4970992;28;20050;-74
2024/01/20 08:12:24;;;;;;;69.70;27.03;;;;;;;-144.74;100.00;63161.41;4953780;28;20038;-74
2024/01/20 08:14:50;;;;;;;71.40;29.50;;;;;;;-144.74;100.00;63161.41;4968405;28;20039;-74
2024/01/20 08:17:15;;;;;;;59.20;28.00;;;;;;;-144.74;100.00;63161.41;4986524;28;20098;-74
2024/01/20 08:19:40;;;;;;;67.03;27.63;;;;;;;-144.74;100.00;63161.41;4958829;28;20039;-74
2024/01/20 08:22:06;;;;;;;58.10;26.80;;;;;;;-144.74;100.00;63161.41;4973669;28;20073;-74
2024/01/20 08:24:34;;;;;;;67.53;29.10;;;;;;;-144.74;100.00;63161.41;4950727;28;20038;-73
2024/01/20 08:27:00;;;;;;;70.77;30.07;;;;;;;-144.74;100.00;63161.41;4953313;28;20018;-74
2024/01/20 08:29:25;;;;;;;67.60;29.40;;;;;;;-144.74;100.00;63161.41;4954800;28;20097;-73
2024/01/20 08:31:50;;;;;;;70.93;25.63;;;;;;;-144.74;100.00;63161.41;4972203;28;20026;-74
2024/01/20 08:34:16;;;;;;;55.83;26.20;;;;;;;-144.74;100.00;63161.41;4971562;28;20066;-74
2024/01/20 08:36:41;;;;;;;75.93;28.87;;;;;;;-144.74;100.00;63161.41;4955546;28;20041;-74
2024/01/20 08:39:07;;;;;;;67.23;26.97;;;;;;;-144.74;100.00;63161.41;4969111;28;20027;-73
2024/01/20 08:41:32;;;;;;;58.37;26.47;;;;;;;-144.74;100.00;63161.41;4954849;28;20026;-73
2024/01/20 08:43:57;;;;;;;69.83;30.93;;;;;;;-144.74;100.00;63161.41;4953916;28;20077;-71
2024/01/20 08:46:25;;;;;;;66.10;29.33;;;;;;;-144.74;100.00;63161.41;4954326;28;20035;-70
2024/01/20 08:48:50;;;;;;;64.30;27.93;;;;;;;-144.74;100.00;63161.41;4953793;28;20039;-70
2024/01/20 08:51:16;;;;;;;70.83;28.73;;;;;;;-144.74;100.00;63161.41;4954430;28;20073;-73
2024/01/20 08:53:41;;;;;;;67.97;27.33;;;;;;;-144.74;100.00;63161.41;4972075;28;20113;-71
2024/01/20 08:56:07;;;;;;;74.17;30.03;;;;;;;-144.74;100.00;63161.41;4977608;28;20026;-70
2024/01/20 08:58:32;;;;;;;61.97;27.10;;;;;;;-144.74;100.00;63161.41;4970560;28;20014;-70
2024/01/20 09:00:58;;;;;;;61.47;29.52;;;;;;;-144.74;100.00;63161.41;4968037;28;20019;-71
2024/01/20 09:03:23;;;;;;;63.33;29.23;;;;;;;-144.74;100.00;63161.41;4985131;28;20026;-70
2024/01/20 09:05:48;;;;;;;62.90;27.02;;;;;;;-144.74;100.00;63161.41;4962639;28;20290;-71
2024/01/20 09:08:14;;;;;;;58.83;26.00;;;;;;;-144.74;100.00;63161.41;4958275;28;20015;-70
2024/01/20 09:10:39;;;;;;;78.38;27.42;;;;;;;-144.74;100.00;63161.41;4957858;28;20129;-70
2024/01/20 09:13:05;;;;;;;62.17;26.73;;;;;;;-144.74;100.00;63161.41;4958208;28;20494;-71
2024/01/20 09:15:31;;;;;;;71.25;26.05;;;;;;;-144.74;100.00;63161.41;4957752;28;20054;-71
2024/01/20 09:17:56;;;;;;;53.20;24.90;;;;;;;-144.74;100.00;63161.41;4958141;28;20504;-71
2024/01/20 09:20:22;;;;;;;65.43;27.67;;;;;;;-144.74;100.00;63161.41;4958077;28;20038;-70
2024/01/20 09:22:47;;;;;;;51.67;24.50;;;;;;;-144.74;100.00;63161.41;4975497;28;20114;-71
2024/01/20 09:25:12;;;;;;;68.50;26.50;;;;;;;-144.74;100.00;63161.41;4957823;28;20100;-71
2024/01/20 09:27:38;;;;;;;57.35;24.80;;;;;;;-144.74;100.00;63161.41;4958186;28;20022;-71
2024/01/20 09:30:05;;;;;;;64.45;28.02;;;;;;;-144.74;100.00;63161.41;4974584;28;20050;-70
2024/01/20 09:32:33;;;;;;;61.80;24.88;;;;;;;-144.74;100.00;63161.41;4959184;28;20030;-70
2024/01/20 09:35:02;;;;;;;69.20;26.02;;;;;;;-144.74;100.00;63161.41;4957204;28;20575;-72
2024/01/20 09:37:29;;;;;;;56.08;25.83;;;;;;;-144.74;100.00;63161.41;4958134;28;20482;-70
2024/01/20 09:39:55;;;;;;;58.05;23.52;;;;;;;-144.74;100.00;63161.41;4974955;28;20054;-70
2024/01/20 09:42:21;;;;;;;56.72;26.08;;;;;;;-144.74;100.00;63161.41;4957581;28;20034;-70
2024/01/20 09:44:47;;;;;;;56.30;22.95;;;;;;;-144.74;100.00;63161.41;4981343;28;20600;-70
2024/01/20 09:47:12;;;;;;;63.88;27.60;;;;;;;-144.74;100.00;63161.41;4959778;28;20023;-70
2024/01/20 09:49:38;;;;;;;51.95;22.77;;;;;;;-144.74;100.00;63161.41;4973890;28;20410;-70
2024/01/20 09:52:15;;;;;;;55.63;23.45;;;;;;;-144.74;100.00;63161.41;4965905;28;20022;-70
2024/01/20 09:55:01;;;;;;;65.35;28.80;;;;;;;-144.74;100.00;63161.41;4974036;28;20037;-70
2024/01/20 09:57:28;;;;;;;58.85;25.42;;;;;;;-144.74;100.00;63161.41;4956160;28;20035;-70
2024/01/20 09:59:56;;;;;;;60.42;26.90;;;;;;;-144.74;100.00;63161.41;4957087;28;20058;-70
2024/01/20 10:02:25;;;;;;;66.10;24.48;;;;;;;-144.74;100.00;63161.41;4974718;28;20473;-71
2024/01/20 10:04:55;;;;;;;56.90;25.15;;;;;;;-144.74;100.00;63161.41;4955883;28;20098;-71
2024/01/20 10:07:28;;;;;;;54.30;22.77;;;;;;;-144.74;100.00;63161.41;4974353;28;20037;-71
2024/01/20 10:09:53;;;;;;;65.97;27.77;;;;;;;-144.74;100.00;63161.41;4949595;28;20039;-71
2024/01/20 10:12:18;;;;;;;55.97;24.20;;;;;;;-144.74;100.00;63161.41;4972454;28;20029;-70
2024/01/20 10:14:44;;;;;;;69.63;27.90;;;;;;;-144.74;100.00;63161.41;4957056;28;20093;-70
2024/01/20 10:17:09;;;;;;;60.70;24.38;;;;;;;-144.74;100.00;63161.41;4973222;28;20544;-69
2024/01/20 10:19:34;;;;;;;63.00;25.00;;;;;;;-144.74;100.00;63161.41;4956190;28;20118;-69
2024/01/20 10:22:00;;;;;;;59.95;23.98;;;;;;;-144.74;100.00;63161.41;4956168;28;20075;-69
2024/01/20 10:24:25;;;;;;;59.38;21.98;;;;;;;-144.74;100.00;63161.41;4953059;28;20032;-69
2024/01/20 10:26:52;;;;;;;59.45;24.58;;;;;;;-144.74;100.00;63161.41;4953133;28;20030;-70
2024/01/20 10:29:18;;;;;;;53.03;24.92;;;;;;;-144.74;100.00;63161.41;4974455;28;20035;-71
2024/01/20 10:31:43;;;;;;;59.53;24.77;;;;;;;-144.74;100.00;63161.41;4974313;28;20023;-71
2024/01/20 10:34:08;;;;;;;65.35;26.35;;;;;;;-144.74;100.00;63161.41;4956337;28;20120;-69
2024/01/20 10:36:34;;;;;;;64.43;26.20;;;;;;;-144.74;100.00;63161.41;4968268;28;20093;-70
2024/01/20 10:39:02;;;;;;;65.68;23.25;;;;;;;-144.74;100.00;63161.41;4956141;28;20035;-69
2024/01/20 10:41:28;;;;;;;52.88;25.92;;;;;;;-144.74;100.00;63161.41;4966403;28;20165;-69
2024/01/20 10:44:04;;;;;;;66.28;22.77;;;;;;;-144.74;100.00;63161.41;4967160;28;20156;-70
2024/01/20 10:46:36;;;;;;;53.75;23.25;;;;;;;-144.74;100.00;63161.41;4950952;28;20190;-69
2024/01/20 10:49:04;;;;;;;59.63;23.95;;;;;;;-144.74;100.00;63161.41;4955379;28;20082;-69
2024/01/20 10:51:31;;;;;;;53.88;22.48;;;;;;;-144.74;100.00;63161.41;4951128;28;20155;-69